x

La Have Bank (44150) Weather Station

7:00am - Sun 26th Feb 2017 All times are AST. -4 hours from GMT.

  • Wind
    20mph
  • Air Temp 49°f
  • Sea Pressure 999.1mb
  • La Have Bank
  • La Have Bank

More Historic Weather Station data

Upgrade to MSW Pro to gain access to the past 30 days of data for over 8000 Wavebouys and Weather Stations around the globe.

Join Pro

Comparision Forecast

View Surf forecast
   
Sun 02/26 7:00am  -   -  20
mph
999.1mb - 49f
6:00am 9.5ft 10s 20 22 mph 998.4mb 41f 49f
5:00am 8ft 9s 25 31 mph 997.5mb 41f 49f
4:00am 8ft 7s 27 31 mph 996.2mb 41f 51f
3:00am 7.5ft 6s 25 29 mph 995.9mb 41f 49f
2:00am 7ft 6s 25 29 mph 997.2mb 42f 49f
1:00am 6ft 5s 27 36 mph 998.4mb 42f 49f
12:00am 5ft  -  29 34 mph 999.4mb 43f 50f
Sat 02/25 11:00pm 4.5ft 10s 25 29 mph 1001.7mb 43f 50f
10:00pm 4ft 11s 18 22 mph 1004.7mb 43f 48f
9:00pm 3.5ft 12s 20 22 mph 1006.9mb 44f 48f
8:00pm 3.5ft 10s 20 22 mph 1007.9mb 43f 48f
7:00pm 3.5ft 11s 18
mph
1009.7mb 42f 47f
6:00pm 3.5ft 11s 16 18 mph 1010.9mb 43f 47f
5:00pm 3.5ft 11s 16 18 mph 1011.9mb 42f 46f
4:00pm 3.5ft 10s 16 18 mph 1013mb 44f 46f
3:00pm 3.5ft 10s 16 18 mph 1014mb 45f 47f
2:00pm 3.5ft 11s 16 18 mph 1014.6mb 45f 47f
1:00pm 3.5ft 12s 13 16 mph 1015.5mb 45f 48f
12:00pm 3.5ft 11s 9 16 mph 1016.9mb 45f 47f
11:00am 3.5ft 11s 11 13 mph 1017.5mb 45f 48f
10:00am 3.5ft 11s 9 11 mph 1018mb 44f 47f
9:00am 3.5ft 11s 9
mph
1018.3mb 44f 47f
8:00am 3ft 11s 9
mph
1018.5mb 44f 47f
7:00am 3ft 11s 7 9 mph 1018.1mb 43f 47f
6:00am 3.5ft 12s 7 9 mph 1018.1mb 44f 47f
5:00am 3.5ft 12s 9 11 mph 1017.9mb 45f 48f
4:00am 3.5ft 12s 11 13 mph 1017.6mb 45f 48f
3:00am 4ft 13s 9 11 mph 1017.6mb 45f 47f
2:00am 4.5ft 12s 11 13 mph 1017.8mb 45f 48f
1:00am 4.5ft 12s 13
mph
1017.8mb 45f 49f
12:00am 4.5ft 12s 11 13 mph 1017.9mb 45f 49f
Fri 02/24 11:00pm 4.5ft 6s 11 13 mph 1018.1mb 45f 48f
10:00pm 4.5ft 6s 11 13 mph 1018.3mb 44f 48f
9:00pm 4.5ft 11s 11
mph
1018.5mb 44f 47f
8:00pm 4.5ft 7s 11
mph
1018.5mb 44f 48f
7:00pm 4.5ft 12s 9 11 mph 1018.5mb 44f 47f
6:00pm 4.5ft 12s 11 13 mph 1018mb 45f 48f
5:00pm 4.5ft 13s 13 16 mph 1017.7mb 45f 48f
4:00pm 4.5ft 6s 9 11 mph 1017.8mb 44f 48f
3:00pm 5ft 6s 11 13 mph 1017.4mb 44f 48f
2:00pm 5ft 6s 11 13 mph 1017.4mb 43f 48f
1:00pm 5.5ft 6s 9 11 mph 1017.3mb 43f 47f
12:00pm 6ft 6s 11
mph
1017.9mb 43f 47f
11:00am 6ft 6s 11 13 mph 1017.7mb 43f 47f
10:00am 5.5ft 7s 11 13 mph 1017.7mb 43f 47f
9:00am 5.5ft 7s 13
mph
1017mb 42f 48f
8:00am 6ft 6s 16 20 mph 1016.6mb 42f 49f
7:00am 6ft 7s 18 20 mph 1015.8mb 42f 49f
6:00am 6.5ft 7s 16 18 mph 1015.6mb 41f 49f
5:00am 6ft 7s 16 18 mph 1015.7mb 42f 48f
4:00am 7ft 6s 16 18 mph 1015.1mb 42f 49f
3:00am 6ft 6s 18 20 mph 1014.6mb 42f 50f
2:00am 6.5ft 6s 18 22 mph 1015mb 42f 49f
1:00am 6ft 6s 18 20 mph 1015mb 42f 49f
12:00am 6ft 6s 18 20 mph 1015.2mb 42f 49f
Thu 02/23 11:00pm 5.5ft 10s 16 18 mph 1015.7mb 43f 49f
10:00pm 6ft 10s 13 16 mph 1015.7mb 44f 49f
9:00pm 5ft 11s 13 16 mph 1015.3mb 44f 49f
8:00pm 5ft 10s 13 16 mph 1015mb 43f 48f
7:00pm 5ft 10s 13 16 mph 1014.8mb 44f 48f
6:00pm 4.5ft 11s 13
mph
1014.7mb 45f 48f
5:00pm 5ft 10s 13 16 mph 1014.2mb 45f 48f
4:00pm 5.5ft 11s 11 13 mph 1014.3mb 46f 47f
3:00pm 6ft 11s 13 18 mph 1014.6mb 46f 45f
2:00pm 6ft 10s 16 18 mph 1014.5mb 46f 43f
1:00pm 6ft 10s 16 18 mph 1014.9mb 47f 43f
12:00pm 5.5ft 10s 13 16 mph 1015.6mb 46f 43f
11:00am 6ft 10s 9 11 mph 1015.7mb 46f 43f
10:00am 6ft 10s 4 7 mph 1015.7mb 46f 41f
9:00am 5ft 11s 4 9 mph 1015.5mb 46f 40f
8:00am 5.5ft 11s 4 9 mph 1015.6mb 46f 40f
7:00am 5ft 11s 7 11 mph 1015.1mb 47f 41f
6:00am 5ft 10s 13 18 mph 1014.8mb 46f 41f